Tiempo atmosférico en la estación meteorológica de Cala, Huelva (618 m.)



Fecha
DESCASC
Temp. máxima en grados centígrados (hora)
DESCASC
Temp. mínima en grados centígrados (hora)
DESCASC
Temp. media en grados centígrados
DESCASC
Racha de viento máxima en m/sg (hora)
DESCASC
Velocidad máxima media en intervalos de 10 minutos(hora)
DESCASC
Precipitaciones diarias en mm
DESCASC
Precipitaciones de 00:00 a 06:00 en mm
DESCASC
Precipitaciones de 06:00 a 12:00 en mm
DESCASC
Precipitaciones de 12:00 a 18:00 en mm
DESCASC
Precipitaciones de 18:00 a 24:00 en mm
DESCASC
22-01-2021 12.3 (01:40) 7.5 (00:00) 9.9 15.83 (14:40) 7.78 (15:00) 6.6 6.4 0 0.2 0
28-12-2020 9.1 (14:40) 3.7 (00:00) 6.4 14.72 (07:20) 6.39 (06:40) 3 0.2 2.8 0 0
25-01-2021 13.2 (13:30) 9.2 (00:00) 11.2 13.33 (13:50) 6.39 (13:40) 2.8 0.6 0.6 1.4 0.2
23-01-2021 11.5 (14:00) 6.2 (00:00) 8.8 12.22 (23:40) 5.56 (23:20) 4.6 0 0 2.2 2.4
24-01-2021 12.1 (15:00) 8.4 (00:00) 10.3 11.94 (00:20) 5 (00:50) 3 2.6 0.4 0 0
01-01-2021 7.8 (14:50) 1.7 (00:00) 4.8 11.39 (14:30) 6.11 (13:20) 0 0 0 0 0
21-01-2021 11.8 (16:30) 8.6 (00:00) 10.2 10 (18:20) 4.44 (02:40) 5.6 2.4 0.2 0.2 2.8
20-01-2021 11.4 (14:10) 7.8 (00:00) 9.6 10 (19:00) 4.72 (19:00) 32 0 29 1.2 1.8
31-12-2020 8.3 (14:20) -0.4 (00:00) 4 8.89 (21:30) 4.17 (13:30) 1 0 0 0 1
29-12-2020 8.2 (16:00) 2.2 (00:00) 5.2 8.61 (12:50) 4.44 (14:10) 1 0 0 1 0
02-01-2021 6.9 (15:10) 0.5 (00:00) 3.7 8.06 (13:20) 4.72 (05:00) 0 0 0 0 0
09-01-2021 4.8 (15:20) 0.5 (00:00) 2.7 8.06 (07:40) 3.33 (03:40) 0.8 0.8 0 0 0
26-01-2021 14.6 (14:30) 10.7 (00:00) 12.7 7.78 (01:00) 4.44 (00:50) 1.6 0 0.6 0.2 0.8
11-01-2021 6.6 (15:00) -0.8 (-00:0) 2.9 7.5 (11:40) 4.44 (11:50) 0 0 0 0 0
10-01-2021 5.4 (16:40) 0.1 (07:20) 2.8 7.5 (13:30) 3.33 (13:30) 2.2 0.4 1.4 0.4 0
03-01-2021 7.5 (15:00) -2.7 (-00:0) 2.4 7.5 (15:10) 3.61 (13:40) 0 0 0 0 0
04-01-2021 6.9 (14:00) 0.4 (00:00) 3.7 7.5 (14:10) 3.61 (13:30) 0.8 0 0.2 0 0.6
08-01-2021 4.7 (12:20) 2.2 (00:00) 3.4 7.5 (11:00) 3.33 (16:40) 15 0 3 11 1
30-12-2020 8.2 (15:20) 0.6 (00:00) 4.4 6.67 (16:00) 3.89 (12:30) 0.2 0 0.2 0 0
07-01-2021 7.6 (14:00) 2.5 (00:00) 5 6.67 (20:30) 3.06 (14:40) 0.8 0.8 0 0 0
14-01-2021 11.6 (15:00) -0.1 (08:10) 5.8 6.67 (15:00) 3.89 (15:00) 0 0 0 0 0
16-01-2021 15.2 (15:40) -0.2 (00:00) 7.5 5.83 (17:20) 2.5 (14:40) 0 0 0 0 0
19-01-2021 10.3 (15:20) 0.9 (00:00) 5.6 5.56 (11:10) 2.22 (11:10) 0 0 0 0 0
06-01-2021 8.6 (14:30) -2.8 (-00:0) 2.9 5.28 (14:40) 2.5 (13:40) 2 0 0 0 2
13-01-2021 13.4 (15:30) -2.3 (-00:0) 5.5 5 (21:30) 2.22 (21:30) 0 0 0 0 0
15-01-2021 13.5 (16:40) -1.1 (-00:0) 6.2 4.44 (15:20) 2.5 (15:10) 0 0 0 0 0
05-01-2021 7 (14:20) -1.5 (-00:0) 2.8 4.17 (14:50) 1.94 (14:40) 0 0 0 0 0
17-01-2021 16.6 (15:00) 1.7 (00:00) 9.2 3.89 (13:50) 1.94 (14:30) 0 0 0 0 0
18-01-2021 15.3 (15:30) 1.5 (00:00) 8.4 3.61 (14:50) 1.39 (12:30) 0 0 0 0 0
12-01-2021 9.1 (16:30) -4.6 (-00:0) 2.3 3.06 (02:00) 1.67 (20:10) 0 0 0 0 0

Gráficas

Temp. máximas Temp. mínimas Temp. medias Precipitaciones Rachas de viento máximas Velocidades máximas media en intervalos de 10 minutos

Datos horarios

Fecha y hora oficial Temperatura (ºC) Velocidad del viento (km/h) Dirección del viento Racha (km/h) Dirección de racha Precipitación (mm) Presión (hPa) Tendencia (hPa) Humedad (%)
2021-01-26 23:00:00 13.5 10 Oeste 17 Oeste 0 -- -- 99
2021-01-26 22:00:00 13.8 5 Oeste 12 Oeste 0.4 -- -- 98
2021-01-26 21:00:00 13.9 3 Noroeste 11 Noroeste 0.2 -- -- 98
2021-01-26 20:00:00 14 5 Oeste 12 Oeste 0 -- -- 98
2021-01-26 19:00:00 14.2 4 Oeste 13 Oeste 0 -- -- 97
2021-01-26 18:00:00 14.4 5 Oeste 17 Oeste 0 -- -- 96
2021-01-26 17:00:00 14.5 3 Oeste 9 Oeste 0.2 -- -- 97
2021-01-26 16:00:00 14.6 3 Oeste 12 Sudoeste 0 -- -- 95
2021-01-26 15:00:00 14.6 6 Sudoeste 14 Sudoeste 0 -- -- 94
2021-01-26 14:00:00 14.1 3 Oeste 9 Sudoeste 0 -- -- 96
2021-01-26 13:00:00 13.7 0 Calma 9 Sudoeste 0 -- -- 96
2021-01-26 12:00:00 13.4 3 Sur 6 Oeste 0.2 -- -- 97
2021-01-26 11:00:00 13.1 2 Oeste 8 Noroeste 0 -- -- 99
2021-01-26 10:00:00 12.1 0 Calma 10 Oeste 0.2 -- -- 99
2021-01-26 09:00:00 11.6 0 Calma 6 Oeste 0.2 -- -- 99
2021-01-26 08:00:00 11.6 0 Calma 9 Oeste 0 -- -- 99
2021-01-26 07:00:00 11.5 2 Oeste 12 Oeste 0 -- -- 99
2021-01-26 06:00:00 11.3 5 Oeste 13 Noroeste 0 -- -- 99
2021-01-26 05:00:00 11.1 6 Noroeste 15 Noroeste 0 -- -- 98
2021-01-26 04:00:00 11 6 Noroeste 21 Noroeste 0 -- -- 98
2021-01-26 03:00:00 10.9 10 Noroeste 25 Noroeste 0 -- -- 98
2021-01-26 02:00:00 10.8 13 Noroeste 28 Oeste 0 -- -- 97
2021-01-26 01:00:00 11.2 14 Oeste 28 Noroeste 0 -- -- 96
2021-01-26 00:00:00 11.1 15 Noroeste 35 Noroeste 0 -- -- 96
2021-01-25 23:00:00 11.5 17 Noroeste 30 Noroeste 0 -- -- 96
2021-01-25 22:00:00 11.7 16 Noroeste 31 Noroeste 0 -- -- 97
2021-01-25 21:00:00 11.8 9 Oeste 22 Noroeste 0.2 -- -- 97
2021-01-25 20:00:00 12 11 Noroeste 29 Oeste 0 -- -- 95
2021-01-25 19:00:00 12.3 12 Noroeste 24 Oeste 0 -- -- 91
2021-01-25 18:00:00 12.6 8 Noroeste 25 Oeste 0 -- -- 89
2021-01-25 17:00:00 12.8 12 Noroeste 26 Oeste 0 -- -- 90
2021-01-25 16:00:00 12.9 15 Noroeste 38 Oeste 0 -- -- 88
2021-01-25 15:00:00 12.9 16 Oeste 40 Noroeste 0 -- -- 90
2021-01-25 14:00:00 12.9 21 Noroeste 48 Noroeste 0.6 -- -- 93
2021-01-25 13:00:00 12.7 14 Oeste 29 Oeste 0.8 -- -- 98
2021-01-25 12:00:00 12 11 Sudoeste 29 Oeste 0 -- -- 98
2021-01-25 11:00:00 11.3 8 Sudoeste 28 Sudoeste 0.2 -- -- 99
2021-01-25 10:00:00 10.7 10 Sudoeste 24 Sudoeste 0.2 -- -- 99
2021-01-25 09:00:00 10.3 9 Sudoeste 20 Sudoeste 0 -- -- 99
2021-01-25 08:00:00 10.3 6 Sudoeste 24 Noroeste 0.2 -- -- 99
2021-01-25 07:00:00 10.1 11 Oeste 25 Oeste 0 -- -- 99
2021-01-25 06:00:00 9.7 11 Oeste 28 Oeste 0 -- -- 99
2021-01-25 05:00:00 9.5 9 Sudoeste 20 Oeste 0.2 -- -- 98
2021-01-25 04:00:00 9.6 6 Sudoeste 17 Sudoeste 0.4 -- -- 98
2021-01-25 03:00:00 9.6 4 Sudoeste 14 Sudoeste 0 -- -- 97
2021-01-25 02:00:00 9.5 3 Sudoeste 9 Sudoeste 0 -- -- 95
2021-01-25 01:00:00 9.3 3 Sudoeste 6 Sudoeste 0 -- -- 95
2021-01-25 00:00:00 9.3 3 Oeste 12 Oeste 0 -- -- 95
2021-01-24 23:00:00 9.4 6 Sudoeste 12 Sudoeste 0 -- -- 93
2021-01-24 22:00:00 9.1 3 Sudoeste 11 Oeste 0 -- -- 94
2021-01-24 21:00:00 9.3 4 Sudoeste 14 Sudoeste 0 -- -- 91
2021-01-24 20:00:00 9.8 3 Oeste 10 Noroeste 0 -- -- 89
2021-01-24 19:00:00 10.2 3 Noroeste 16 Noroeste 0 -- -- 85
2021-01-24 18:00:00 11.1 8 Oeste 21 Sudoeste 0 -- -- 82
2021-01-24 17:00:00 11.7 8 Oeste 19 Oeste 0 -- -- 79
2021-01-24 16:00:00 12.1 10 Oeste 23 Oeste 0 -- -- 77
2021-01-24 15:00:00 12.1 13 Noroeste 24 Oeste 0 -- -- 77
2021-01-24 14:00:00 12 13 Noroeste 22 Oeste 0 -- -- 78
2021-01-24 13:00:00 10.9 10 Noroeste 20 Noroeste 0 -- -- 84
2021-01-24 12:00:00 9.8 13 Oeste 27 Noroeste 0 -- -- 89
2021-01-24 11:00:00 9.3 15 Noroeste 30 Oeste 0 -- -- 92
2021-01-24 10:00:00 8.6 14 Noroeste 25 Oeste 0 -- -- 95
2021-01-24 09:00:00 8.5 12 Oeste 28 Noroeste 0 -- -- 97
2021-01-24 08:00:00 8.8 15 Noroeste 28 Noroeste 0 -- -- 93
2021-01-24 07:00:00 10.7 11 Noroeste 25 Noroeste 0.4 -- -- 98
2021-01-24 06:00:00 11.7 13 Oeste 36 Oeste 0.4 -- -- 99
2021-01-24 05:00:00 11.6 9 Oeste 28 Oeste 0.8 -- -- 99
2021-01-24 04:00:00 11.4 9 Oeste 26 Oeste 1.2 -- -- 98
2021-01-24 03:00:00 11.4 7 Oeste 25 Oeste 0.2 -- -- 98
2021-01-24 02:00:00 11.3 10 Oeste 39 Oeste 0 -- -- 97
2021-01-24 01:00:00 11.2 16 Oeste 43 Oeste 0 -- -- 98
2021-01-24 00:00:00 11 14 Oeste 44 Oeste 0 -- -- 98
2021-01-23 23:00:00 11 17 Oeste 40 Oeste 0.8 -- -- 98
2021-01-23 22:00:00 11 16 Oeste 39 Oeste 0.2 -- -- 98
2021-01-23 21:00:00 11 12 Oeste 34 Oeste 0.6 -- -- 99
2021-01-23 20:00:00 10.2 9 Sudoeste 24 Sudoeste 0.4 -- -- 99
2021-01-23 19:00:00 9.9 8 Sudoeste 24 Sudoeste 0.4 -- -- 98
2021-01-23 18:00:00 9.8 6 Sudoeste 31 Sudoeste 0.4 -- -- 97
2021-01-23 17:00:00 9.8 9 Sudoeste 28 Sudoeste 0.2 -- -- 96
2021-01-23 16:00:00 9.8 12 Sudoeste 28 Sudoeste 0.6 -- -- 95
2021-01-23 15:00:00 10.3 13 Oeste 34 Sudoeste 1 -- -- 92
2021-01-23 14:00:00 11.5 9 Sudoeste 33 Sudoeste 0 -- -- 82
2021-01-23 13:00:00 11 17 Sudoeste 39 Sudoeste 0 -- -- 82
2021-01-23 12:00:00 10.2 7 Sudoeste 19 Sudoeste 0 -- -- 87
2021-01-23 11:00:00 9 5 Sudoeste 17 Sudoeste 0 -- -- 93
2021-01-23 10:00:00 7.5 3 Sudoeste 13 Sudoeste 0 -- -- 95
2021-01-23 09:00:00 7 4 Oeste 18 Oeste 0 -- -- 97
2021-01-23 08:00:00 6.7 8 Oeste 21 Oeste 0 -- -- 95
2021-01-23 07:00:00 7.1 10 Oeste 29 Oeste 0 -- -- 96
2021-01-23 06:00:00 6.8 2 Noroeste 26 Oeste 0 -- -- 95
2021-01-23 05:00:00 6.4 7 Oeste 19 Sudoeste 0 -- -- 95
2021-01-23 04:00:00 6.6 8 Oeste 23 Oeste 0 -- -- 94
2021-01-23 03:00:00 6.6 8 Oeste 24 Oeste 0 -- -- 94
2021-01-23 02:00:00 6.7 4 Noroeste 17 Oeste 0 -- -- 93
2021-01-23 01:00:00 7.2 8 Oeste 21 Oeste 0 -- -- 92
2021-01-23 00:00:00 7.5 6 Oeste 16 Sudoeste 0 -- -- 91
2021-01-22 23:00:00 8.1 5 Oeste 16 Sudoeste 0 -- -- 89
2021-01-22 22:00:00 8.3 8 Oeste 17 Oeste 0 -- -- 89
2021-01-22 21:00:00 8.3 5 Oeste 14 Oeste 0 -- -- 89
2021-01-22 20:00:00 8.7 4 Oeste 29 Oeste 0 -- -- 85
2021-01-22 19:00:00 9.5 11 Oeste 30 Noroeste 0 -- -- 79
2021-01-22 18:00:00 10.5 11 Noroeste 40 Oeste 0 -- -- 75
2021-01-22 17:00:00 10.8 21 Noroeste 50 Noroeste 0.2 -- -- 71
2021-01-22 16:00:00 10.5 23 Noroeste 52 Oeste 0 -- -- 75
2021-01-22 15:00:00 11.2 28 Noroeste 57 Noroeste 0 -- -- 70
2021-01-22 14:00:00 11.3 23 Oeste 53 Oeste 0 -- -- 74
2021-01-22 13:00:00 11.2 21 Oeste 50 Oeste 0 -- -- 73
2021-01-22 12:00:00 10.3 20 Noroeste 46 Oeste 0 -- -- 81
2021-01-22 11:00:00 9.5 18 Oeste 46 Oeste 0 -- -- 85
2021-01-22 10:00:00 8.7 18 Noroeste 43 Noroeste 0 -- -- 90
2021-01-22 09:00:00 8.6 13 Oeste 36 Oeste 0 -- -- 93
2021-01-22 08:00:00 9 18 Noroeste 37 Oeste 0 -- -- 95
2021-01-22 07:00:00 9.7 15 Oeste 44 Oeste 0 -- -- 97
2021-01-22 06:00:00 10.4 17 Oeste 40 Sudoeste 0.2 -- -- 98
2021-01-22 05:00:00 11 17 Oeste 48 Oeste 1.4 -- -- 99
2021-01-22 04:00:00 11.2 21 Oeste 48 Oeste 1.4 -- -- 98
2021-01-22 03:00:00 12.1 15 Oeste 34 Oeste 1.6 -- -- 98
2021-01-22 02:00:00 12.3 17 Oeste 39 Sudoeste 0.8 -- -- 99
2021-01-22 01:00:00 12.1 10 Sudoeste 33 Sudoeste 1 -- -- 99
2021-01-22 00:00:00 11.7 13 Sudoeste 36 Sudoeste 1.2 -- -- 99
2021-01-21 23:00:00 11.2 6 Sudoeste 31 Sudoeste 1.2 -- -- 98
2021-01-21 22:00:00 10.9 12 Sudoeste 30 Sudoeste 0.2 -- -- 98
2021-01-21 21:00:00 10.8 12 Sudoeste 31 Sudoeste 0 -- -- 94
2021-01-21 20:00:00 11 10 Sudoeste 32 Sudoeste 0 -- -- 92
2021-01-21 19:00:00 11.1 12 Sudoeste 36 Oeste 0.2 -- -- 92
2021-01-21 18:00:00 11.3 11 Sudoeste 31 Sudoeste 0 -- -- 93
2021-01-21 17:00:00 11.7 12 Sudoeste 30 Sudoeste 0 -- -- 93
2021-01-21 16:00:00 11.4 12 Sudoeste 30 Sudoeste 0.2 -- -- 94
2021-01-21 15:00:00 10.7 9 Sudoeste 29 Sudoeste 0 -- -- 95
2021-01-21 14:00:00 10.5 8 Sudoeste 26 Sudoeste 0 -- -- 94
2021-01-21 13:00:00 10.7 8 Sudoeste 25 Sudoeste 0 -- -- 93
2021-01-21 12:00:00 10.5 11 Sudoeste 26 Sudoeste 0 -- -- 93
2021-01-21 11:00:00 9.9 8 Sudoeste 23 Oeste 0 -- -- 97
2021-01-21 10:00:00 8.9 10 Sudoeste 23 Sudoeste 0 -- -- 99
2021-01-21 09:00:00 8.7 6 Sudoeste 21 Oeste 0.2 -- -- 98
2021-01-21 08:00:00 8.7 5 Sudoeste 17 Oeste 0 -- -- 98
2021-01-21 07:00:00 8.6 5 Sudoeste 19 Sudoeste 0 -- -- 98
2021-01-21 06:00:00 8.8 9 Sudoeste 23 Sudoeste 0.4 -- -- 98
2021-01-21 05:00:00 8.8 3 Sudoeste 17 Sudoeste 0 -- -- 98
2021-01-21 04:00:00 8.8 8 Oeste 21 Oeste 0 -- -- 98
2021-01-21 03:00:00 8.9 13 Oeste 32 Sudoeste 0.2 -- -- 98
2021-01-21 02:00:00 9 5 Sudoeste 25 Oeste 1.2 -- -- 98
2021-01-21 01:00:00 8.8 6 Oeste 21 Oeste 0.6 -- -- 98
2021-01-21 00:00:00 8.8 9 Sudoeste 23 Sudoeste 0.6 -- -- 97
2021-01-20 23:00:00 8.7 3 Sudoeste 12 Sudoeste 0.8 -- -- 96
2021-01-20 22:00:00 8.6 5 Sudoeste 23 Oeste 0.2 -- -- 94
2021-01-20 21:00:00 8.5 10 Oeste 26 Oeste 0 -- -- 92
2021-01-20 20:00:00 8.5 6 Oeste 28 Sudoeste 0 -- -- 91
2021-01-20 19:00:00 9.6 17 Oeste 36 Sudoeste 0.2 -- -- 90
2021-01-20 18:00:00 10.4 11 Oeste 29 Sudoeste 0 -- -- 86
2021-01-20 17:00:00 10.8 6 Sudoeste 24 Oeste 0 -- -- 88
2021-01-20 16:00:00 10.3 10 Sudoeste 33 Oeste 0.8 -- -- 88
2021-01-20 15:00:00 11.4 11 Sudoeste 32 Sudoeste 0 -- -- 91
2021-01-20 14:00:00 11.3 12 Sudoeste 30 Oeste 0 -- -- 96
2021-01-20 13:00:00 10.5 6 Sudoeste 15 Sudoeste 0.4 -- -- 98
2021-01-20 12:00:00 10.1 7 Sudoeste 19 Sudoeste 2.4 -- -- 99
2021-01-20 11:00:00 9.6 5 Oeste 15 Sudoeste 6.6 -- -- 99
2021-01-20 10:00:00 8.8 3 Sur 17 Noroeste 14.6 -- -- 99
2021-01-20 09:00:00 8.4 5 Sur 24 Sudoeste 4.2 -- -- 98
2021-01-20 08:00:00 8.3 10 Sur 27 Sudeste 0.8 -- -- 98
2021-01-20 07:00:00 7.9 13 Sur 28 Sudoeste 0.4 -- -- 98
2021-01-20 06:00:00 8 9 Sur 24 Sudoeste 0 -- -- 96
2021-01-20 05:00:00 8 8 Sur 21 Sudoeste 0 -- -- 95
2021-01-20 04:00:00 7.9 6 Sur 23 Sudeste 0 -- -- 95
2021-01-20 03:00:00 7.9 5 Sur 11 Sudeste 0 -- -- 93
2021-01-20 02:00:00 7.9 4 Sur 17 Sudoeste 0 -- -- 92
2021-01-20 01:00:00 8 7 Sur 16 Sur 0 -- -- 91
2021-01-20 00:00:00 8.1 5 Sur 17 Sudoeste 0 -- -- 92
2021-01-19 23:00:00 8.2 5 Sur 18 Sudoeste 0 -- -- 90
2021-01-19 22:00:00 8.1 5 Sur 13 Sur 0 -- -- 91
2021-01-19 21:00:00 8.1 3 Sur 9 Sur 0 -- -- 92
2021-01-19 20:00:00 8.1 2 Sur 9 Sudeste 0 -- -- 90
2021-01-19 19:00:00 8.4 3 Sur 10 Sudeste 0 -- -- 87
2021-01-19 18:00:00 9 2 Sur 8 Sudoeste 0 -- -- 83
2021-01-19 17:00:00 9.4 4 Sur 12 Sur 0 -- -- 82
2021-01-19 16:00:00 9.9 3 Sur 11 Sudoeste 0 -- -- 77
2021-01-19 15:00:00 9.9 3 Sur 12 Sudoeste 0 -- -- 80
2021-01-19 14:00:00 9.3 4 Sur 11 Sudoeste 0 -- -- 84
2021-01-19 13:00:00 9.5 4 Sur 14 Sudoeste 0 -- -- 83
2021-01-19 12:00:00 9.2 5 Sur 20 Sudoeste 0 -- -- 84
2021-01-19 11:00:00 8.1 6 Sudoeste 16 Sudoeste 0 -- -- 86
2021-01-19 10:00:00 6.5 0 Calma 6 Sudeste 0 -- -- 93
2021-01-19 09:00:00 6.3 0 Calma 10 Oeste 0 -- -- 91
2021-01-19 08:00:00 5.8 4 Oeste 14 Oeste 0 -- -- 96
2021-01-19 07:00:00 4.8 3 Sudoeste 12 Sudoeste 0 -- -- 99
2021-01-19 06:00:00 2.2 2 Este 6 Sudoeste 0 -- -- 97
2021-01-19 05:00:00 0.9 0 Calma 4 Oeste 0 -- -- 90
2021-01-19 04:00:00 1.1 0 Calma 2 Noroeste 0 -- -- 88
2021-01-19 03:00:00 1.1 0 Calma 2 Noroeste 0 -- -- 88
2021-01-19 02:00:00 1.3 0 Calma 3 Oeste 0 -- -- 84
2021-01-19 01:00:00 1.9 0 Calma 0 Calma 0 -- -- 83
2021-01-19 00:00:00 2.3 0 Calma 2 Noroeste 0 -- -- 82
2021-01-18 23:00:00 2.9 0 Calma 0 Calma 0 -- -- 80
2021-01-18 22:00:00 3.3 0 Calma 2 Oeste 0 -- -- 79
2021-01-18 21:00:00 4 0 Calma 4 Noroeste 0 -- -- 75
2021-01-18 20:00:00 5.2 0 Calma 3 Oeste 0 -- -- 70
2021-01-18 19:00:00 7.9 0 Calma 3 Noroeste 0 -- -- 58
2021-01-18 18:00:00 12.3 0 Calma 12 Sur 0 -- -- 45
2021-01-18 17:00:00 14.6 5 Sur 12 Sur 0 -- -- 42
2021-01-18 16:00:00 15.3 3 Sur 9 Sudoeste 0 -- -- 39
2021-01-18 15:00:00 14.9 4 Sudoeste 13 Oeste 0 -- -- 38
2021-01-18 14:00:00 14.4 3 Noroeste 9 Sudeste 0 -- -- 35
2021-01-18 13:00:00 14.3 5 Sudeste 12 Sudeste 0 -- -- 33
2021-01-18 12:00:00 13.5 3 Sudeste 8 Este 0 -- -- 38
2021-01-18 11:00:00 9.8 2 Sudeste 6 Sudeste 0 -- -- 43
2021-01-18 10:00:00 5 2 Noroeste 3 Noroeste 0 -- -- 56
2021-01-18 09:00:00 1.6 2 Noroeste 2 Noroeste 0 -- -- 61
2021-01-18 08:00:00 2 0 Calma 0 Calma 0 -- -- 59
2021-01-18 07:00:00 2.1 0 Calma 0 Calma 0 -- -- 56
2021-01-18 06:00:00 2 0 Calma 0 Calma 0 -- -- 58
2021-01-18 05:00:00 2.1 0 Calma 4 Noroeste 0 -- -- 58
2021-01-18 04:00:00 2.3 3 Noroeste 4 Oeste 0 -- -- 61
2021-01-18 03:00:00 2.5 0 Calma 3 Sudoeste 0 -- -- 64
2021-01-18 02:00:00 3.2 0 Calma 2 Sudoeste 0 -- -- 60
2021-01-18 01:00:00 3.3 0 Calma 3 Oeste 0 -- -- 54
2021-01-18 00:00:00 3.6 0 Calma 3 Noroeste 0 -- -- 63
2021-01-17 23:00:00 3.8 0 Calma 4 Noroeste 0 -- -- 68
2021-01-17 22:00:00 4.4 0 Calma 4 Noroeste 0 -- -- 62
2021-01-17 21:00:00 5 0 Calma 7 Noroeste 0 -- -- 54
2021-01-17 20:00:00 6.5 3 Noroeste 5 Noroeste 0 -- -- 53
2021-01-17 19:00:00 9.3 0 Calma 4 Noroeste 0 -- -- 46
2021-01-17 18:00:00 13.7 0 Calma 9 Este 0 -- -- 36
2021-01-17 17:00:00 16.1 3 Este 12 Este 0 -- -- 26
2021-01-17 16:00:00 16.4 6 Norte 13 Nordeste 0 -- -- 24
2021-01-17 15:00:00 16.6 5 Sudeste 14 Este 0 -- -- 27
2021-01-17 14:00:00 16.1 5 Este 14 Este 0 -- -- 23
2021-01-17 13:00:00 15.6 4 Sudeste 9 Sudeste 0 -- -- 26
2021-01-17 12:00:00 14.3 3 Este 7 Este 0 -- -- 22
2021-01-17 11:00:00 10.9 2 Nordeste 6 Nordeste 0 -- -- 31
2021-01-17 10:00:00 5 2 Noroeste 3 Noroeste 0 -- -- 51
2021-01-17 09:00:00 1.9 3 Noroeste 5 Noroeste 0 -- -- 60
2021-01-17 08:00:00 2.6 0 Calma 5 Oeste 0 -- -- 60
2021-01-17 07:00:00 3.3 0 Calma 3 Nordeste 0 -- -- 55
2021-01-17 06:00:00 4.3 0 Calma 5 Este 0 -- -- 53
2021-01-17 05:00:00 4.4 0 Calma 4 Noroeste 0 -- -- 48
2021-01-17 04:00:00 4.6 3 Norte 8 Norte 0 -- -- 50
2021-01-17 03:00:00 3.7 0 Calma 4 Este 0 -- -- 55
2021-01-17 02:00:00 3.4 0 Calma 3 Nordeste 0 -- -- 58
2021-01-17 01:00:00 4.6 0 Calma 5 Sudeste 0 -- -- 55
2021-01-17 00:00:00 7 2 Nordeste 10 Nordeste 0 -- -- 37
2021-01-16 23:00:00 5.1 0 Calma 8 Norte 0 -- -- 51
2021-01-16 22:00:00 4.6 4 Noroeste 7 Oeste 0 -- -- 63
2021-01-16 21:00:00 6.1 3 Noroeste 10 Noroeste 0 -- -- 60
2021-01-16 20:00:00 6.5 6 Noroeste 8 Noroeste 0 -- -- 54
2021-01-16 19:00:00 9.7 2 Norte 12 Nordeste 0 -- -- 42
2021-01-16 18:00:00 13.3 8 Nordeste 21 Este 0 -- -- 29
2021-01-16 17:00:00 14.7 6 Este 19 Este 0 -- -- 27
2021-01-16 16:00:00 15.1 5 Este 15 Sudeste 0 -- -- 32
2021-01-16 15:00:00 14.9 6 Este 17 Este 0 -- -- 31
2021-01-16 14:00:00 14 7 Este 15 Este 0 -- -- 30
2021-01-16 13:00:00 13.5 6 Este 15 Este 0 -- -- 34
2021-01-16 12:00:00 12.1 3 Sudeste 8 Sudeste 0 -- -- 41
2021-01-16 11:00:00 7.8 0 Calma 3 Nordeste 0 -- -- 49
2021-01-16 10:00:00 2.7 0 Calma 4 Sudoeste 0 -- -- 78
2021-01-16 09:00:00 0 0 Calma 4 Noroeste 0 -- -- 85
2021-01-16 08:00:00 -0.1 2 Oeste 3 Oeste 0 -- -- 87
2021-01-16 07:00:00 -0.2 0 Calma 3 Noroeste 0 -- -- 90
2021-01-16 06:00:00 0.2 0 Calma 3 Oeste 0 -- -- 89
2021-01-16 05:00:00 0.9 0 Calma 2 Sudoeste 0 -- -- 87
2021-01-16 04:00:00 2 0 Calma 4 Noroeste 0 -- -- 81
2021-01-16 03:00:00 4 5 Noroeste 10 Norte 0 -- -- 76
2021-01-16 02:00:00 5.5 3 Norte 12 Nordeste 0 -- -- 72
2021-01-16 01:00:00 6.4 6 Nordeste 17 Nordeste 0 -- -- 67
2021-01-16 00:00:00 5.7 5 Este 14 Nordeste 0 -- -- 66
2021-01-15 23:00:00 5.6 4 Norte 14 Norte 0 -- -- 67
2021-01-15 22:00:00 4.8 9 Norte 15 Norte 0 -- -- 61
2021-01-15 21:00:00 5.3 4 Noroeste 12 Norte 0 -- -- 64
2021-01-15 20:00:00 6.1 4 Norte 8 Norte 0 -- -- 62
2021-01-15 19:00:00 8.7 0 Calma 10 Noroeste 0 -- -- 64
2021-01-15 18:00:00 11.3 5 Norte 15 Norte 0 -- -- 44
2021-01-15 17:00:00 13.4 6 Norte 16 Norte 0 -- -- 41
2021-01-15 16:00:00 13.2 6 Oeste 16 Oeste 0 -- -- 42
2021-01-15 15:00:00 12.6 8 Oeste 15 Oeste 0 -- -- 44
2021-01-15 14:00:00 12.1 6 Sudoeste 14 Sudoeste 0 -- -- 43
2021-01-15 13:00:00 12 4 Sur 10 Sudoeste 0 -- -- 39
2021-01-15 12:00:00 11 3 Sur 7 Sudeste 0 -- -- 45
2021-01-15 11:00:00 7.1 0 Calma 4 Noroeste 0 -- -- 60
2021-01-15 10:00:00 2.3 3 Noroeste 4 Noroeste 0 -- -- 73
2021-01-15 09:00:00 -0.9 3 Noroeste 5 Noroeste 0 -- -- 82
2021-01-15 08:00:00 -0.8 0 Calma 2 Noroeste 0 -- -- 82
2021-01-15 07:00:00 -0.5 0 Calma 3 Noroeste 0 -- -- 80
2021-01-15 06:00:00 -0.5 0 Calma 2 Oeste 0 -- -- 81
2021-01-15 05:00:00 0.2 0 Calma 4 Oeste 0 -- -- 81
2021-01-15 04:00:00 1.1 3 Oeste 6 Noroeste 0 -- -- 80
2021-01-15 03:00:00 2.4 3 Noroeste 8 Norte 0 -- -- 76
2021-01-15 02:00:00 3.8 5 Norte 11 Norte 0 -- -- 72
2021-01-15 01:00:00 3.1 4 Noroeste 10 Norte 0 -- -- 74
2021-01-15 00:00:00 4.9 2 Nordeste 11 Noroeste 0 -- -- 66
2021-01-14 23:00:00 4.8 2 Oeste 16 Oeste 0 -- -- 70
2021-01-14 22:00:00 5 6 Norte 18 Noroeste 0 -- -- 62
2021-01-14 21:00:00 3.7 4 Noroeste 17 Noroeste 0 -- -- 65
2021-01-14 20:00:00 3.7 3 Noroeste 9 Oeste 0 -- -- 76
2021-01-14 19:00:00 5.5 0 Calma 11 Norte 0 -- -- 64
2021-01-14 18:00:00 9.1 5 Norte 21 Norte 0 -- -- 47
2021-01-14 17:00:00 10.6 13 Norte 22 Noroeste 0 -- -- 41
2021-01-14 16:00:00 11.3 12 Noroeste 23 Noroeste 0 -- -- 40
2021-01-14 15:00:00 11.6 14 Noroeste 24 Noroeste 0 -- -- 33
2021-01-14 14:00:00 11.3 8 Norte 15 Norte 0 -- -- 37
2021-01-14 13:00:00 10.8 5 Noroeste 15 Noroeste 0 -- -- 37
2021-01-14 12:00:00 10.3 6 Norte 14 Noroeste 0 -- -- 37
2021-01-14 11:00:00 6.9 3 Nordeste 8 Noroeste 0 -- -- 54
2021-01-14 10:00:00 2.1 0 Calma 8 Oeste 0 -- -- 75
2021-01-14 09:00:00 0.2 0 Calma 9 Oeste 0 -- -- 80
2021-01-14 08:00:00 0.1 0 Calma 4 Noroeste 0 -- -- 78
2021-01-14 07:00:00 1.3 3 Oeste 8 Oeste 0 -- -- 71
2021-01-14 06:00:00 0.6 0 Calma 5 Oeste 0 -- -- 76
2021-01-14 05:00:00 1.2 3 Noroeste 6 Noroeste 0 -- -- 76
2021-01-14 04:00:00 1.9 0 Calma 6 Oeste 0 -- -- 75
2021-01-14 03:00:00 2.9 3 Noroeste 13 Oeste 0 -- -- 70
2021-01-14 02:00:00 2.5 3 Noroeste 9 Oeste 0 -- -- 74
2021-01-14 01:00:00 3 3 Noroeste 14 Oeste 0 -- -- 73
2021-01-14 00:00:00 3.8 6 Noroeste 14 Oeste 0 -- -- 70
2021-01-13 23:00:00 3.9 5 Noroeste 13 Oeste 0 -- -- 64
2021-01-13 22:00:00 4.5 4 Oeste 18 Oeste 0 -- -- 63
2021-01-13 21:00:00 3.4 4 Noroeste 11 Oeste 0 -- -- 59
2021-01-13 20:00:00 5 4 Noroeste 7 Oeste 0 -- -- 57
2021-01-13 19:00:00 7.7 5 Oeste 9 Oeste 0 -- -- 43
2021-01-13 18:00:00 10.4 5 Oeste 11 Oeste 0 -- -- 39
2021-01-13 17:00:00 12.3 6 Oeste 11 Oeste 0 -- -- 33
2021-01-13 16:00:00 13 5 Oeste 10 Sudoeste 0 -- -- 36
2021-01-13 15:00:00 12.9 4 Sur 9 Sudeste 0 -- -- 39
2021-01-13 14:00:00 11.9 3 Nordeste 9 Este 0 -- -- 37
2021-01-13 13:00:00 11 0 Calma 8 Este 0 -- -- 38
2021-01-13 12:00:00 9.4 3 Este 5 Este 0 -- -- 43
2021-01-13 11:00:00 4.9 0 Calma 3 Este 0 -- -- 51
2021-01-13 10:00:00 0.3 0 Calma 3 Noroeste 0 -- -- 69
2021-01-13 09:00:00 -2.2 0 Calma 2 Oeste 0 -- -- 81
2021-01-13 08:00:00 -2.3 0 Calma 4 Oeste 0 -- -- 81
2021-01-13 07:00:00 -2.2 0 Calma 2 Noroeste 0 -- -- 82
2021-01-13 06:00:00 -1.9 0 Calma 2 Noroeste 0 -- -- 80
2021-01-13 05:00:00 -1.9 0 Calma 4 Noroeste 0 -- -- 81
2021-01-13 04:00:00 -1.1 0 Calma 2 Sur 0 -- -- 77
2021-01-13 03:00:00 -0.8 0 Calma 2 Sudoeste 0 -- -- 75
2021-01-13 02:00:00 -0.3 0 Calma 2 Sur 0 -- -- 72
2021-01-13 01:00:00 0.6 0 Calma 13 Nordeste 0 -- -- 71
2021-01-13 00:00:00 -0.5 3 Norte 8 Nordeste 0 -- -- 78
2021-01-12 23:00:00 -0.5 0 Calma 2 Noroeste 0 -- -- 82
2021-01-12 22:00:00 0.4 0 Calma 8 Noroeste 0 -- -- 79
2021-01-12 21:00:00 1.2 3 Noroeste 10 Norte 0 -- -- 77
2021-01-12 20:00:00 1.6 5 Noroeste 10 Norte 0 -- -- 78
2021-01-12 19:00:00 3.8 0 Calma 2 Oeste 0 -- -- 68
2021-01-12 18:00:00 7.7 0 Calma 6 Sudoeste 0 -- -- 56
2021-01-12 17:00:00 9.1 2 Sudeste 5 Nordeste 0 -- -- 43
2021-01-12 16:00:00 8.9 0 Calma 5 Este 0 -- -- 36
2021-01-12 15:00:00 8.3 2 Nordeste 6 Este 0 -- -- 40
2021-01-12 14:00:00 7.3 0 Calma 10 Este 0 -- -- 44
2021-01-12 13:00:00 6.3 4 Sudeste 10 Este 0 -- -- 46
2021-01-12 12:00:00 5 3 Sudeste 8 Este 0 -- -- 52
2021-01-12 11:00:00 1.5 2 Sudeste 4 Sudeste 0 -- -- 60
2021-01-12 10:00:00 -2.7 0 Calma 2 Sur 0 -- -- 79
2021-01-12 09:00:00 -4.5 0 Calma 0 Calma 0 -- -- 89
2021-01-12 08:00:00 -4.5 0 Calma 0 Calma 0 -- -- 89
2021-01-12 07:00:00 -4.2 0 Calma 2 Noroeste 0 -- -- 88
2021-01-12 06:00:00 -3.8 0 Calma 0 Calma 0 -- -- 87
2021-01-12 05:00:00 -3.1 0 Calma 4 Oeste 0 -- -- 84
2021-01-12 04:00:00 -2.3 0 Calma 3 Sudeste 0 -- -- 78
2021-01-12 03:00:00 -1.6 0 Calma 9 Este 0 -- -- 76
2021-01-12 02:00:00 -0.5 4 Este 11 Este 0 -- -- 65
2021-01-12 01:00:00 -1.1 0 Calma 6 Norte 0 -- -- 81
2021-01-12 00:00:00 -0.8 2 Noroeste 4 Noroeste 0 -- -- 83
2021-01-11 23:00:00 0.7 0 Calma 10 Norte 0 -- -- 77
2021-01-11 22:00:00 1.5 5 Noroeste 11 Norte 0 -- -- 74
2021-01-11 21:00:00 2.3 5 Norte 13 Norte 0 -- -- 72
2021-01-11 20:00:00 2.6 5 Nordeste 12 Norte 0 -- -- 74
2021-01-11 19:00:00 3.5 3 Nordeste 8 Norte 0 -- -- 74
2021-01-11 18:00:00 5.1 3 Norte 13 Noroeste 0 -- -- 68
2021-01-11 17:00:00 6.3 6 Norte 15 Norte 0 -- -- 64
2021-01-11 16:00:00 6.5 8 Nordeste 20 Norte 0 -- -- 60
2021-01-11 15:00:00 6.6 10 Norte 22 Noroeste 0 -- -- 60
2021-01-11 14:00:00 6.4 8 Norte 17 Noroeste 0 -- -- 57
2021-01-11 13:00:00 5.8 7 Nordeste 19 Sudeste 0 -- -- 61
2021-01-11 12:00:00 5 13 Nordeste 27 Nordeste 0 -- -- 60
2021-01-11 11:00:00 3.7 11 Nordeste 23 Nordeste 0 -- -- 64
2021-01-11 10:00:00 1.3 7 Nordeste 15 Nordeste 0 -- -- 82
2021-01-11 09:00:00 0.1 0 Calma 10 Sudeste 0 -- -- 89
2021-01-11 08:00:00 -0.4 2 Oeste 12 Norte 0 -- -- 91
2021-01-11 07:00:00 0.2 2 Sudeste 13 Nordeste 0 -- -- 91
2021-01-11 06:00:00 0.3 2 Sudeste 11 Sudeste 0 -- -- 92
2021-01-11 05:00:00 0.3 2 Este 10 Norte 0 -- -- 94
2021-01-11 04:00:00 0 4 Nordeste 15 Noroeste 0 -- -- 93
2021-01-11 03:00:00 -0.1 9 Noroeste 13 Noroeste 0 -- -- 93
2021-01-11 02:00:00 -0.6 4 Noroeste 6 Noroeste 0 -- -- 92
2021-01-11 01:00:00 0.8 0 Calma 10 Este 0 -- -- 88
2021-01-11 00:00:00 1.7 3 Nordeste 15 Nordeste 0 -- -- 85
2021-01-10 23:00:00 1.7 7 Noroeste 14 Norte 0 -- -- 89
2021-01-10 22:00:00 2.5 8 Norte 18 Nordeste 0 -- -- 87
2021-01-10 21:00:00 3.6 6 Norte 17 Norte 0 -- -- 85
2021-01-10 20:00:00 3.7 5 Norte 21 Norte 0 -- -- 83
2021-01-10 19:00:00 3.6 8 Norte 21 Norte 0 -- -- 83
2021-01-10 18:00:00 4.4 6 Norte 16 Norte 0 -- -- 80
2021-01-10 17:00:00 5.1 8 Norte 21 Norte 0 -- -- 80
2021-01-10 16:00:00 5.1 5 Norte 22 Norte 0 -- -- 79
2021-01-10 15:00:00 5.2 8 Nordeste 22 Nordeste 0 -- -- 76
2021-01-10 14:00:00 4.1 8 Este 27 Nordeste 0 -- -- 84
2021-01-10 13:00:00 2.7 9 Nordeste 19 Nordeste 0.4 -- -- 88
2021-01-10 12:00:00 2.7 6 Nordeste 19 Este 0.8 -- -- 96
2021-01-10 11:00:00 1.6 4 Este 13 Sudeste 0.6 -- -- 98
2021-01-10 10:00:00 0.6 3 Sudeste 10 Sudeste 0 -- -- 99
2021-01-10 09:00:00 0.2 0 Calma -- -- 0 -- -- 99
2021-01-10 08:00:00 0.2 0 Calma 3 Nordeste 0 -- -- 99
2021-01-10 07:00:00 0.2 0 Calma 4 Este 0 -- -- 99
2021-01-10 06:00:00 0.2 3 Nordeste 8 Este 0 -- -- 99
2021-01-10 05:00:00 0.4 3 Este 7 Este 0 -- -- 98
2021-01-10 04:00:00 0.6 2 Este 6 Este 0 -- -- 98
2021-01-10 03:00:00 0.6 3 Este 8 Este 0.2 -- -- 98
2021-01-10 02:00:00 0.8 0 Calma 4 Este 0 -- -- 98
2021-01-10 01:00:00 0.9 2 Este 6 Este 0.2 -- -- 98
2021-01-10 00:00:00 0.8 2 Sudeste 7 Este 0 -- -- 97
2021-01-09 23:00:00 0.9 4 Este 8 Este 0 -- -- 95
2021-01-09 22:00:00 1.1 0 Calma 6 Este 0 -- -- 94
2021-01-09 21:00:00 1.2 0 Calma 8 Noroeste 0 -- -- 92
2021-01-09 20:00:00 1.4 3 Noroeste 15 Noroeste 0 -- -- 90
2021-01-09 19:00:00 2 6 Noroeste 14 Noroeste 0 -- -- 89
2021-01-09 18:00:00 2.9 5 Noroeste 12 Oeste 0 -- -- 88
2021-01-09 17:00:00 3.8 6 Oeste 13 Noroeste 0 -- -- 85
2021-01-09 16:00:00 4.4 6 Oeste 16 Oeste 0 -- -- 82
2021-01-09 15:00:00 4.7 3 Sudoeste 13 Sudoeste 0 -- -- 79
2021-01-09 14:00:00 4.5 8 Oeste 20 Sudoeste 0 -- -- 86
2021-01-09 13:00:00 3.8 7 Oeste 20 Oeste 0 -- -- 92
2021-01-09 12:00:00 2.6 9 Oeste 20 Oeste 0 -- -- 94
2021-01-09 11:00:00 1.8 5 Oeste 18 Oeste 0 -- -- 97
2021-01-09 10:00:00 0.7 10 Oeste 21 Noroeste 0 -- -- 98
2021-01-09 09:00:00 0.6 9 Oeste 23 Oeste 0 -- -- 99
2021-01-09 08:00:00 0.8 12 Noroeste 29 Noroeste 0 -- -- 99
2021-01-09 07:00:00 1 8 Oeste 23 Oeste 0 -- -- 99
2021-01-09 06:00:00 1.3 8 Noroeste 22 Norte 0.2 -- -- 100
2021-01-09 05:00:00 1.3 8 Noroeste 23 Noroeste 0 -- -- 100
2021-01-09 04:00:00 1.4 10 Noroeste 24 Noroeste 0 -- -- 99
2021-01-09 03:00:00 1.5 5 Noroeste 18 Oeste 0 -- -- 99
2021-01-09 02:00:00 1.5 6 Noroeste 22 Noroeste 0 -- -- 99
2021-01-09 01:00:00 1.8 9 Noroeste 17 Noroeste 0.6 -- -- 98
2021-01-09 00:00:00 2.2 2 Noroeste 8 Norte 0 -- -- 97
2021-01-08 23:00:00 2.5 10 Norte 18 Noroeste 0.2 -- -- 96
2021-01-08 22:00:00 3.2 6 Noroeste 15 Norte 0.2 -- -- 97
2021-01-08 21:00:00 3 8 Norte 23 Nordeste 0.4 -- -- 96
2021-01-08 20:00:00 3.1 10 Norte 20 Norte 0 -- -- 97
2021-01-08 19:00:00 3.2 9 Norte 19 Noroeste 0.2 -- -- 96
2021-01-08 18:00:00 3.6 6 Norte 22 Norte 0.6 -- -- 96
2021-01-08 17:00:00 4 8 Nordeste 22 Nordeste 1.2 -- -- 96
2021-01-08 16:00:00 4.5 7 Nordeste 18 Nordeste 1.2 -- -- 97
2021-01-08 15:00:00 4.5 6 Nordeste 23 Nordeste 4.4 -- -- 97
2021-01-08 14:00:00 4.6 6 Este 18 Este 1.8 -- -- 97
2021-01-08 13:00:00 4.5 7 Este 20 Norte 1.8 -- -- 96
2021-01-08 12:00:00 4.4 5 Este 21 Nordeste 2 -- -- 96
2021-01-08 11:00:00 4.1 10 Nordeste 27 Este 0.2 -- -- 94
2021-01-08 10:00:00 3.5 7 Nordeste 23 Nordeste 0 -- -- 93
2021-01-08 09:00:00 3 5 Este 13 Nordeste 0.4 -- -- 95
2021-01-08 08:00:00 2.9 6 Nordeste 15 Nordeste 0.4 -- -- 94
2021-01-08 07:00:00 3.1 3 Norte 10 Este 0 -- -- 93
2021-01-08 06:00:00 3.2 2 Nordeste 11 Sudeste 0 -- -- 91
2021-01-08 05:00:00 3.2 3 Este 17 Este 0 -- -- 90
2021-01-08 04:00:00 3 4 Este 15 Nordeste 0 -- -- 89
2021-01-08 03:00:00 2.7 8 Nordeste 17 Nordeste 0 -- -- 89
2021-01-08 02:00:00 2.6 7 Este 18 Nordeste 0 -- -- 89
2021-01-08 01:00:00 2.6 5 Nordeste 18 Nordeste 0 -- -- 89
2021-01-08 00:00:00 2.6 8 Este 18 Nordeste 0 -- -- 88
2021-01-07 23:00:00 2.6 8 Este 22 Este 0 -- -- 88
2021-01-07 22:00:00 2.7 4 Este 21 Nordeste 0 -- -- 89
2021-01-07 21:00:00 3.1 7 Este 24 Este 0 -- -- 88
2021-01-07 20:00:00 3.7 8 Este 23 Este 0 -- -- 88
2021-01-07 19:00:00 4.1 7 Nordeste 15 Nordeste 0 -- -- 89
2021-01-07 18:00:00 4.6 8 Nordeste 20 Nordeste 0 -- -- 87
2021-01-07 17:00:00 5.6 6 Nordeste 20 Norte 0 -- -- 85
2021-01-07 16:00:00 7.1 7 Norte 17 Norte 0 -- -- 82
2021-01-07 15:00:00 7 8 Norte 21 Norte 0 -- -- 80
2021-01-07 14:00:00 7.6 8 Norte 17 Norte 0 -- -- 81
2021-01-07 13:00:00 6 5 Este 12 Nordeste 0 -- -- 85
2021-01-07 12:00:00 5.6 5 Este 11 Este 0 -- -- 90
2021-01-07 11:00:00 4.3 3 Sudeste 16 Este 0 -- -- 95
2021-01-07 10:00:00 3.6 6 Este 19 Nordeste 0 -- -- 96
2021-01-07 09:00:00 3.3 8 Norte 19 Norte 0 -- -- 96
2021-01-07 08:00:00 3.7 3 Nordeste 9 Noroeste 0 -- -- 96
2021-01-07 07:00:00 3.7 2 Nordeste 9 Este 0 -- -- 97
2021-01-07 06:00:00 3.6 4 Nordeste 10 Nordeste 0.2 -- -- 97
2021-01-07 05:00:00 3.8 3 Nordeste 9 Nordeste 0.2 -- -- 97
2021-01-07 04:00:00 3.8 3 Nordeste 9 Este 0 -- -- 97
2021-01-07 03:00:00 3.9 4 Nordeste 10 Nordeste 0.2 -- -- 96
2021-01-07 02:00:00 3.9 3 Nordeste 14 Nordeste 0 -- -- 97
2021-01-07 01:00:00 3.9 2 Este 10 Nordeste 0.2 -- -- 97
2021-01-07 00:00:00 4.1 4 Este 8 Este 0.2 -- -- 97
2021-01-06 23:00:00 4.2 5 Este 11 Este 0.6 -- -- 96
2021-01-06 22:00:00 4.3 2 Este 12 Sudeste 0.6 -- -- 94
2021-01-06 21:00:00 4.7 3 Este 13 Este 0.6 -- -- 89
2021-01-06 20:00:00 5.3 3 Este 12 Este 0 -- -- 81
2021-01-06 19:00:00 5.6 4 Este 16 Nordeste 0 -- -- 80
2021-01-06 18:00:00 6.3 4 Este 15 Sudeste 0 -- -- 77
2021-01-06 17:00:00 7.3 5 Este 16 Nordeste 0 -- -- 73
2021-01-06 16:00:00 8.2 7 Este 17 Este 0 -- -- 69
2021-01-06 15:00:00 8.4 8 Este 19 Sudeste 0 -- -- 70
2021-01-06 14:00:00 8.3 7 Sudeste 18 Sudeste 0 -- -- 70
2021-01-06 13:00:00 7.1 6 Este 17 Sudeste 0 -- -- 73
2021-01-06 12:00:00 5.7 3 Este 11 Nordeste 0 -- -- 71
2021-01-06 11:00:00 1.7 0 Calma 5 Este 0 -- -- 81
2021-01-06 10:00:00 -0.3 0 Calma 2 Nordeste 0 -- -- 90
2021-01-06 09:00:00 -1.4 0 Calma 2 Este 0 -- -- 93
2021-01-06 08:00:00 -2.2 2 Noroeste 3 Noroeste 0 -- -- 94
2021-01-06 07:00:00 -2.7 0 Calma 2 Oeste 0 -- -- 94
2021-01-06 06:00:00 -2.7 0 Calma 2 Oeste 0 -- -- 93
2021-01-06 05:00:00 -2.1 0 Calma 3 Noroeste 0 -- -- 91
2021-01-06 04:00:00 -1.6 0 Calma 3 Nordeste 0 -- -- 90
2021-01-06 03:00:00 -1.6 0 Calma 3 Nordeste 0 -- -- 92
2021-01-06 02:00:00 -2 2 Noroeste 4 Noroeste 0 -- -- 93
2021-01-06 01:00:00 -1.6 0 Calma 7 Noroeste 0 -- -- 89
2021-01-06 00:00:00 -1.1 2 Norte 4 Noroeste 0 -- -- 86
2021-01-05 23:00:00 -0.2 0 Calma 10 Nordeste 0 -- -- 82
2021-01-05 22:00:00 -0.4 0 Calma 5 Nordeste 0 -- -- 82
2021-01-05 21:00:00 -0.1 0 Calma 2 Este 0 -- -- 87
2021-01-05 20:00:00 1.3 0 Calma 4 Norte 0 -- -- 86
2021-01-05 19:00:00 2.9 0 Calma 5 Este 0 -- -- 82
2021-01-05 18:00:00 4.5 0 Calma 9 Nordeste 0 -- -- 78
2021-01-05 17:00:00 5.5 5 Nordeste 13 Nordeste 0 -- -- 72
2021-01-05 16:00:00 5.9 4 Este 15 Nordeste 0 -- -- 72
2021-01-05 15:00:00 6.6 6 Nordeste 15 Este 0 -- -- 70
2021-01-05 14:00:00 6.8 5 Nordeste 13 Sudeste 0 -- -- 72
2021-01-05 13:00:00 6 6 Este 13 Sudeste 0 -- -- 82
2021-01-05 12:00:00 4.2 5 Este 10 Este 0 -- -- 95
2021-01-05 11:00:00 1.7 0 Calma 3 Sudeste 0 -- -- 100
2021-01-05 10:00:00 -0.4 0 Calma 2 Sur 0 -- -- 100
2021-01-05 09:00:00 -1.5 0 Calma 3 Oeste 0 -- -- 97
2021-01-05 08:00:00 -0.9 0 Calma 6 Noroeste 0 -- -- 97
2021-01-05 07:00:00 -0.3 2 Noroeste 5 Noroeste 0 -- -- 98
2021-01-05 06:00:00 0.5 3 Norte 6 Norte 0 -- -- 99
2021-01-05 05:00:00 0.3 0 Calma 3 Norte 0 -- -- 99
2021-01-05 04:00:00 -0.1 0 Calma 3 Sudoeste 0 -- -- 97
2021-01-05 03:00:00 0.4 0 Calma 4 Oeste 0 -- -- 97
2021-01-05 02:00:00 0.9 2 Noroeste 6 Noroeste 0 -- -- 94
2021-01-05 01:00:00 2.2 0 Calma 6 Noroeste 0 -- -- 93
2021-01-05 00:00:00 3.1 0 Calma 6 Sudoeste 0 -- -- 94
2021-01-04 23:00:00 3.8 4 Noroeste 16 Noroeste 0.6 -- -- 95
2021-01-04 22:00:00 3.6 4 Oeste 7 Oeste 0 -- -- 94
2021-01-04 21:00:00 4.6 2 Oeste 8 Sudoeste 0 -- -- 91
2021-01-04 20:00:00 4.9 3 Oeste 12 Oeste 0 -- -- 89
2021-01-04 19:00:00 5.3 5 Oeste 11 Sudoeste 0 -- -- 87
2021-01-04 18:00:00 5.8 6 Oeste 18 Sudoeste 0 -- -- 85
2021-01-04 17:00:00 6.4 7 Oeste 19 Oeste 0 -- -- 82
2021-01-04 16:00:00 6.6 11 Oeste 21 Oeste 0 -- -- 83
2021-01-04 15:00:00 6.4 10 Oeste 27 Oeste 0 -- -- 84
2021-01-04 14:00:00 6.9 12 Oeste 25 Noroeste 0 -- -- 81
2021-01-04 13:00:00 6.7 9 Noroeste 22 Oeste 0 -- -- 79
2021-01-04 12:00:00 5.9 11 Noroeste 24 Noroeste 0.2 -- -- 80
2021-01-04 11:00:00 4 9 Noroeste 17 Oeste 0 -- -- 91
2021-01-04 10:00:00 2 8 Noroeste 21 Oeste 0 -- -- 97
2021-01-04 09:00:00 0.9 8 Noroeste 17 Noroeste 0 -- -- 97
2021-01-04 08:00:00 0.6 8 Oeste 15 Oeste 0 -- -- 97
2021-01-04 07:00:00 0.7 6 Noroeste 18 Oeste 0 -- -- 95
2021-01-04 06:00:00 1 8 Noroeste 18 Oeste 0 -- -- 95
2021-01-04 05:00:00 1 8 Noroeste 18 Oeste 0 -- -- 96
2021-01-04 04:00:00 0.7 9 Oeste 17 Oeste 0 -- -- 96
2021-01-04 03:00:00 1 5 Noroeste 18 Oeste 0 -- -- 93
2021-01-04 02:00:00 1.6 9 Oeste 19 Oeste 0 -- -- 94
2021-01-04 01:00:00 1.4 5 Oeste 12 Oeste 0 -- -- 92
2021-01-04 00:00:00 1.8 5 Oeste 17 Noroeste 0 -- -- 91
2021-01-03 23:00:00 1.8 7 Oeste 15 Oeste 0 -- -- 91
2021-01-03 22:00:00 1.4 2 Oeste 8 Oeste 0 -- -- 90
2021-01-03 21:00:00 2.1 4 Oeste 15 Sudoeste 0 -- -- 86
2021-01-03 20:00:00 2.5 6 Oeste 10 Oeste 0 -- -- 81
2021-01-03 19:00:00 3.8 5 Oeste 15 Oeste 0 -- -- 70
2021-01-03 18:00:00 5.6 8 Oeste 19 Oeste 0 -- -- 62
2021-01-03 17:00:00 7.1 9 Noroeste 24 Oeste 0 -- -- 55
2021-01-03 16:00:00 7.5 9 Noroeste 27 Oeste 0 -- -- 50
2021-01-03 15:00:00 7.5 11 Noroeste 25 Noroeste 0 -- -- 53
2021-01-03 14:00:00 6.7 11 Noroeste 23 Noroeste 0 -- -- 58
2021-01-03 13:00:00 6 6 Oeste 17 Oeste 0 -- -- 65
2021-01-03 12:00:00 5.3 9 Noroeste 19 Noroeste 0 -- -- 66
2021-01-03 11:00:00 3.3 7 Oeste 13 Oeste 0 -- -- 72
2021-01-03 10:00:00 -0.1 5 Oeste 9 Oeste 0 -- -- 86
2021-01-03 09:00:00 -2 0 Calma 7 Oeste 0 -- -- 91
2021-01-03 08:00:00 -2.5 4 Oeste 7 Oeste 0 -- -- 92
2021-01-03 07:00:00 -2.4 0 Calma 5 Noroeste 0 -- -- 90
2021-01-03 06:00:00 -2 4 Oeste 7 Sudoeste 0 -- -- 89
2021-01-03 05:00:00 -1.1 0 Calma 5 Este 0 -- -- 85
2021-01-03 04:00:00 0.5 3 Noroeste 13 Norte 0 -- -- 80
2021-01-03 03:00:00 0.9 7 Noroeste 14 Noroeste 0 -- -- 80
2021-01-03 02:00:00 1.7 6 Noroeste 15 Oeste 0 -- -- 79
2021-01-03 01:00:00 1.6 5 Oeste 13 Oeste 0 -- -- 83
2021-01-03 00:00:00 1.7 6 Oeste 14 Noroeste 0 -- -- 82
2021-01-02 23:00:00 1.7 3 Oeste 15 Oeste 0 -- -- 85
2021-01-02 22:00:00 1.6 3 Oeste 13 Sudoeste 0 -- -- 85
2021-01-02 21:00:00 2.2 3 Oeste 12 Oeste 0 -- -- 81
2021-01-02 20:00:00 2.5 6 Oeste 12 Oeste 0 -- -- 76
2021-01-02 19:00:00 3.5 4 Noroeste 12 Oeste 0 -- -- 70
2021-01-02 18:00:00 5.2 6 Noroeste 23 Noroeste 0 -- -- 61
2021-01-02 17:00:00 6.6 10 Noroeste 22 Norte 0 -- -- 58
2021-01-02 16:00:00 6.9 12 Noroeste 23 Noroeste 0 -- -- 55
2021-01-02 15:00:00 6.8 11 Norte 21 Noroeste 0 -- -- 54
2021-01-02 14:00:00 5.8 12 Noroeste 29 Norte 0 -- -- 60